createdAt,value
2018-06-23T00:00:28.409Z,2.37
2018-06-23T00:02:55.620Z,3.07
2018-06-23T00:05:22.863Z,3.07
2018-06-23T00:07:50.032Z,2.83
2018-06-23T00:10:17.160Z,3.00
2018-06-23T00:12:44.262Z,3.00
2018-06-23T00:15:11.404Z,2.90
2018-06-23T00:17:38.526Z,3.03
2018-06-23T00:20:06.074Z,2.70
2018-06-23T00:22:33.339Z,3.50
2018-06-23T00:25:00.450Z,3.37
2018-06-23T00:27:27.610Z,3.97
2018-06-23T00:29:54.810Z,4.00
2018-06-23T00:32:21.933Z,3.80
2018-06-23T00:34:49.162Z,3.37
2018-06-23T00:37:16.266Z,3.87
2018-06-23T00:39:43.396Z,3.77
2018-06-23T00:42:10.516Z,3.40
2018-06-23T00:44:37.646Z,3.90
2018-06-23T00:47:04.814Z,4.60
2018-06-23T00:49:31.915Z,4.40
2018-06-23T00:51:59.051Z,3.33
2018-06-23T00:54:26.185Z,3.53
2018-06-23T00:56:53.385Z,4.40
2018-06-23T00:59:34.866Z,3.80
2018-06-23T01:02:02.073Z,3.30
2018-06-23T01:04:29.198Z,4.10
2018-06-23T01:06:56.382Z,3.93
2018-06-23T01:09:23.530Z,4.17
2018-06-23T01:11:50.670Z,3.90
2018-06-23T01:14:17.785Z,5.03
2018-06-23T01:16:44.917Z,3.70
2018-06-23T01:19:12.074Z,4.00
2018-06-23T01:21:39.214Z,4.73
2018-06-23T01:24:06.359Z,4.23
2018-06-23T01:26:33.483Z,3.93
2018-06-23T01:29:00.634Z,4.33
2018-06-23T01:31:27.799Z,3.27
2018-06-23T01:33:54.977Z,4.17
2018-06-23T01:36:22.215Z,3.97
2018-06-23T01:38:49.335Z,4.57
2018-06-23T01:41:16.438Z,4.57
2018-06-23T01:43:43.570Z,4.40
2018-06-23T01:46:10.682Z,3.80
2018-06-23T01:48:37.792Z,3.40
2018-06-23T01:51:05.195Z,3.73
2018-06-23T01:53:32.330Z,4.23
2018-06-23T01:55:59.442Z,3.73
2018-06-23T01:58:26.555Z,3.07
2018-06-23T02:00:53.716Z,3.93
2018-06-23T02:03:20.826Z,3.60
2018-06-23T02:05:48.184Z,3.70
2018-06-23T02:08:15.338Z,3.87
2018-06-23T02:10:42.447Z,4.00
2018-06-23T02:13:09.567Z,4.20
2018-06-23T02:15:42.575Z,4.63
2018-06-23T02:18:15.462Z,4.70
2018-06-23T02:20:48.547Z,4.20
2018-06-23T02:23:21.459Z,3.97
2018-06-23T02:25:54.302Z,4.63
2018-06-23T02:28:27.186Z,4.40
2018-06-23T02:31:00.048Z,4.53
2018-06-23T02:33:32.860Z,5.63
2018-06-23T02:36:00.039Z,5.00
2018-06-23T02:38:27.228Z,5.40
2018-06-23T02:40:54.393Z,6.00
2018-06-23T02:43:21.553Z,6.40
2018-06-23T02:45:48.683Z,6.13
2018-06-23T02:48:15.801Z,6.47
2018-06-23T02:50:42.926Z,6.13
2018-06-23T02:53:10.095Z,5.77
2018-06-23T02:55:37.259Z,6.43
2018-06-23T02:58:04.678Z,6.03
2018-06-23T03:00:31.804Z,5.63
2018-06-23T03:02:58.949Z,6.27
2018-06-23T03:05:26.071Z,6.03
2018-06-23T03:07:53.352Z,6.70
2018-06-23T03:10:20.470Z,6.60
2018-06-23T03:12:47.624Z,5.47
2018-06-23T03:15:14.771Z,6.17
2018-06-23T03:17:41.887Z,5.93
2018-06-23T03:20:09.054Z,5.30
2018-06-23T03:22:36.216Z,5.77
2018-06-23T03:25:03.415Z,5.60
2018-06-23T03:27:30.559Z,5.87
2018-06-23T03:29:57.719Z,5.07
2018-06-23T03:32:24.831Z,5.57
2018-06-23T03:34:51.942Z,5.63
2018-06-23T03:37:19.063Z,5.07
2018-06-23T03:39:46.170Z,6.43
2018-06-23T03:42:13.272Z,5.93
2018-06-23T03:44:40.367Z,5.90
2018-06-23T03:47:07.543Z,6.50
2018-06-23T03:49:34.759Z,5.77
2018-06-23T03:52:01.919Z,5.73
2018-06-23T03:54:29.048Z,6.83
2018-06-23T03:56:56.237Z,5.83
2018-06-23T03:59:23.474Z,6.83
2018-06-23T04:01:50.602Z,7.10
2018-06-23T04:04:17.715Z,6.90
2018-06-23T04:06:44.855Z,7.00
2018-06-23T04:09:12.018Z,6.70
2018-06-23T04:11:39.323Z,6.00
2018-06-23T04:14:06.584Z,6.97
2018-06-23T04:16:34.031Z,6.40
2018-06-23T04:19:01.169Z,6.50
2018-06-23T04:21:29.523Z,8.90
2018-06-23T04:23:56.914Z,8.33
2018-06-23T04:26:24.362Z,9.20
2018-06-23T04:28:51.504Z,9.43
2018-06-23T04:31:18.779Z,9.90
2018-06-23T04:33:46.020Z,9.90
2018-06-23T04:36:13.715Z,9.90
2018-06-23T04:38:40.827Z,8.90
2018-06-23T04:41:07.950Z,9.50
2018-06-23T04:43:35.079Z,9.77
2018-06-23T04:46:02.219Z,9.80
2018-06-23T04:48:29.401Z,9.37
2018-06-23T04:50:56.578Z,9.97
2018-06-23T04:53:23.692Z,9.60
2018-06-23T04:55:51.328Z,9.53
2018-06-23T04:58:18.443Z,10.10
2018-06-23T05:00:45.583Z,10.23
2018-06-23T05:03:12.834Z,9.80
2018-06-23T05:05:40.047Z,8.80
2018-06-23T05:08:07.451Z,9.00
2018-06-23T05:10:34.611Z,9.20
2018-06-23T05:13:01.745Z,9.23
2018-06-23T05:15:28.936Z,9.87
2018-06-23T05:17:56.035Z,9.83
2018-06-23T05:20:23.167Z,10.33
2018-06-23T05:22:50.281Z,9.60
2018-06-23T05:25:17.402Z,8.13
2018-06-23T05:27:44.519Z,9.67
2018-06-23T05:30:11.727Z,10.13
2018-06-23T05:32:38.816Z,9.70
2018-06-23T05:35:05.958Z,9.33
2018-06-23T05:37:33.101Z,8.40
2018-06-23T05:40:00.386Z,8.60
2018-06-23T05:42:27.482Z,8.70
2018-06-23T05:44:54.609Z,8.20
2018-06-23T05:47:22.119Z,8.77
2018-06-23T05:49:49.268Z,8.83
2018-06-23T05:52:16.432Z,8.63
2018-06-23T05:54:43.546Z,8.40
2018-06-23T05:57:10.656Z,8.83
2018-06-23T05:59:37.979Z,7.57
2018-06-23T06:02:05.330Z,8.50
2018-06-23T06:04:32.661Z,8.10
2018-06-23T06:06:59.859Z,8.10
2018-06-23T06:09:26.955Z,8.10
2018-06-23T06:11:54.081Z,7.83
2018-06-23T06:14:21.227Z,8.23
2018-06-23T06:17:54.027Z,6.87
2018-06-23T06:20:27.871Z,6.80
2018-06-23T06:22:55.007Z,7.03
2018-06-23T06:25:22.155Z,7.40
2018-06-23T06:27:49.492Z,6.87
2018-06-23T06:30:16.651Z,7.10
2018-06-23T06:32:43.766Z,7.05
2018-06-23T06:35:10.911Z,6.50
2018-06-23T06:37:38.094Z,5.97
2018-06-23T06:40:05.962Z,5.83
2018-06-23T06:42:33.135Z,6.00
2018-06-23T06:45:00.294Z,5.30
2018-06-23T06:47:27.459Z,5.10
2018-06-23T06:49:54.579Z,5.20
2018-06-23T06:52:22.122Z,4.70
2018-06-23T06:54:49.271Z,5.00
2018-06-23T06:57:16.478Z,5.35
2018-06-23T06:59:43.541Z,4.80
2018-06-23T07:02:10.699Z,5.10
2018-06-23T07:04:37.883Z,5.83
2018-06-23T07:07:05.188Z,5.75
2018-06-23T07:09:32.351Z,5.37
2018-06-23T07:11:59.487Z,5.47
2018-06-23T07:14:26.611Z,5.30
2018-06-23T07:16:53.864Z,5.30
2018-06-23T07:19:20.975Z,5.22
2018-06-23T07:21:48.199Z,4.62
2018-06-23T07:24:15.346Z,5.03
2018-06-23T07:26:42.464Z,4.53
2018-06-23T07:29:09.631Z,4.12
2018-06-23T07:31:36.840Z,4.58
2018-06-23T07:34:04.099Z,4.08
2018-06-23T07:36:31.221Z,4.05
2018-06-23T07:38:58.552Z,3.67
2018-06-23T07:41:25.702Z,3.90
2018-06-23T07:43:52.815Z,4.25
2018-06-23T07:46:19.994Z,3.83
2018-06-23T07:48:47.108Z,4.37
2018-06-23T07:51:14.383Z,4.40
2018-06-23T07:53:41.834Z,4.75
2018-06-23T07:56:09.271Z,4.97
2018-06-23T07:58:36.491Z,4.92
2018-06-23T08:01:04.095Z,4.10
2018-06-23T08:03:31.640Z,4.42
2018-06-23T08:05:58.852Z,4.80
2018-06-23T08:08:26.117Z,4.85
2018-06-23T08:10:53.259Z,4.30
2018-06-23T08:13:20.393Z,4.15
2018-06-23T08:15:47.520Z,3.52
2018-06-23T08:18:14.644Z,3.92
2018-06-23T08:20:41.766Z,3.90
2018-06-23T08:23:09.019Z,3.80
2018-06-23T08:25:36.179Z,3.87
2018-06-23T08:28:03.453Z,3.42
2018-06-23T08:30:31.285Z,3.35
2018-06-23T08:32:59.422Z,3.77
2018-06-23T08:35:28.695Z,3.42
2018-06-23T08:37:56.099Z,2.80
2018-06-23T08:40:23.255Z,2.98
2018-06-23T08:42:50.517Z,3.98
2018-06-23T08:45:17.902Z,3.60
2018-06-23T08:47:45.005Z,2.70
2018-06-23T08:50:12.162Z,3.77
2018-06-23T08:52:39.265Z,3.55
2018-06-23T08:55:06.408Z,3.70
2018-06-23T08:57:33.643Z,3.83
2018-06-23T09:00:00.804Z,3.85
2018-06-23T09:02:28.169Z,3.45
2018-06-23T09:04:55.347Z,3.30
2018-06-23T09:07:22.482Z,3.90
2018-06-23T09:09:49.603Z,3.35
2018-06-23T09:12:16.939Z,3.20
2018-06-23T09:14:44.047Z,3.33
2018-06-23T09:17:11.416Z,3.58
2018-06-23T09:19:38.697Z,3.17
2018-06-23T09:22:05.854Z,3.22
2018-06-23T09:24:33.040Z,3.37
2018-06-23T09:27:01.222Z,3.27
2018-06-23T09:29:28.402Z,3.62
2018-06-23T09:31:55.615Z,3.17
2018-06-23T09:34:22.748Z,2.58
2018-06-23T09:36:49.870Z,3.25
2018-06-23T09:39:17.232Z,2.83
2018-06-23T09:41:44.351Z,3.10
2018-06-23T09:44:11.483Z,2.80
2018-06-23T09:46:38.621Z,3.02
2018-06-23T09:49:05.784Z,3.40
2018-06-23T09:51:33.008Z,3.08
2018-06-23T09:54:00.217Z,3.40
2018-06-23T09:56:27.383Z,3.33
2018-06-23T09:58:54.657Z,3.00
2018-06-23T10:01:21.792Z,3.40
2018-06-23T10:03:48.926Z,3.27
2018-06-23T10:06:16.039Z,3.30
2018-06-23T10:08:43.191Z,2.85
2018-06-23T10:11:10.303Z,2.90
2018-06-23T10:13:37.457Z,2.83
2018-06-23T10:16:04.756Z,3.63
2018-06-23T10:18:31.927Z,2.87
2018-06-23T10:20:59.173Z,3.03
2018-06-23T10:23:26.297Z,3.43
2018-06-23T10:25:53.430Z,2.80
2018-06-23T10:28:20.563Z,2.87
2018-06-23T10:30:47.672Z,2.73
2018-06-23T10:33:14.787Z,3.00
2018-06-23T10:35:41.931Z,2.50
2018-06-23T10:38:09.343Z,3.30
2018-06-23T10:40:36.486Z,2.60
2018-06-23T10:43:03.647Z,2.50
2018-06-23T10:45:30.800Z,3.03
2018-06-23T10:47:57.959Z,2.67
2018-06-23T10:50:25.182Z,3.00
2018-06-23T10:52:52.471Z,2.10
2018-06-23T10:55:19.629Z,2.53
2018-06-23T10:57:46.796Z,2.80
2018-06-23T11:00:13.941Z,2.10
2018-06-23T11:02:41.170Z,2.40
2018-06-23T11:05:08.460Z,2.30
2018-06-23T11:07:35.708Z,2.37
2018-06-23T11:10:02.930Z,2.60
2018-06-23T11:12:30.045Z,2.60
2018-06-23T11:14:57.180Z,2.20
2018-06-23T11:17:24.359Z,2.10
2018-06-23T11:19:51.604Z,2.60
2018-06-23T11:22:18.809Z,1.93
2018-06-23T11:24:45.991Z,1.60
2018-06-23T11:27:13.119Z,2.20
2018-06-23T11:29:40.300Z,2.17
2018-06-23T11:32:07.463Z,2.13
2018-06-23T11:34:34.527Z,2.03
2018-06-23T11:37:01.719Z,1.80
2018-06-23T11:39:28.817Z,1.80
2018-06-23T11:41:56.615Z,1.77
2018-06-23T11:44:23.808Z,1.63
2018-06-23T11:46:51.468Z,1.50
2018-06-23T11:49:18.737Z,1.90
2018-06-23T11:51:45.887Z,1.80
2018-06-23T11:54:13.938Z,1.97
2018-06-23T11:56:41.071Z,1.60
2018-06-23T11:59:08.302Z,1.97
2018-06-23T12:01:35.442Z,1.67
2018-06-23T12:04:02.629Z,1.97
2018-06-23T12:06:29.772Z,2.23
2018-06-23T12:08:56.936Z,2.50
2018-06-23T12:11:24.140Z,2.63
2018-06-23T12:13:51.518Z,2.70
2018-06-23T12:16:19.050Z,1.83
2018-06-23T12:18:46.186Z,3.40
2018-06-23T12:21:13.335Z,2.50
2018-06-23T12:23:40.742Z,2.47
2018-06-23T12:26:07.916Z,2.60
2018-06-23T12:28:35.063Z,2.53
2018-06-23T12:31:02.175Z,2.00
2018-06-23T12:33:29.323Z,2.50
2018-06-23T12:35:56.547Z,2.30
2018-06-23T12:38:23.723Z,2.40
2018-06-23T12:40:50.878Z,2.70
2018-06-23T12:43:17.990Z,2.27
2018-06-23T12:45:45.115Z,2.53
2018-06-23T12:48:12.226Z,2.50
2018-06-23T12:50:39.472Z,2.40
2018-06-23T12:53:06.610Z,3.03
2018-06-23T12:55:33.757Z,2.17
2018-06-23T12:58:00.925Z,2.17
2018-06-23T13:00:28.065Z,2.37
2018-06-23T13:02:55.254Z,2.23
2018-06-23T13:05:22.465Z,2.20
2018-06-23T13:07:49.595Z,2.20
2018-06-23T13:10:16.777Z,2.00
2018-06-23T13:12:44.008Z,2.37
2018-06-23T13:15:11.187Z,2.33
2018-06-23T13:17:38.243Z,2.37
2018-06-23T13:20:05.391Z,2.57
2018-06-23T13:22:32.525Z,2.47
2018-06-23T13:24:59.664Z,2.97
2018-06-23T13:27:26.863Z,2.97
2018-06-23T13:29:54.121Z,4.40
2018-06-23T13:32:21.297Z,2.97
2018-06-23T13:34:48.468Z,3.50
2018-06-23T13:37:15.595Z,3.33
2018-06-23T13:39:42.749Z,2.97
2018-06-23T13:42:09.865Z,3.17
2018-06-23T13:44:37.002Z,3.20
2018-06-23T13:47:04.222Z,3.23
2018-06-23T13:49:31.328Z,2.77
2018-06-23T13:51:58.432Z,3.10
2018-06-23T13:54:25.627Z,3.40
2018-06-23T13:56:52.835Z,3.30
2018-06-23T13:59:20.339Z,4.40
2018-06-23T14:01:47.468Z,4.30
2018-06-23T14:04:14.698Z,3.00
2018-06-23T14:06:41.907Z,3.20
2018-06-23T14:09:10.400Z,3.50
2018-06-23T14:11:37.866Z,3.70
2018-06-23T14:14:05.067Z,3.90
2018-06-23T14:16:32.192Z,3.60
2018-06-23T14:18:59.320Z,3.23
2018-06-23T14:21:26.476Z,3.23
2018-06-23T14:23:53.705Z,3.47
2018-06-23T14:26:20.959Z,3.47
2018-06-23T14:28:48.102Z,3.50
2018-06-23T14:31:15.282Z,3.30
2018-06-23T14:33:42.351Z,3.40
2018-06-23T14:36:09.460Z,2.93
2018-06-23T14:38:36.581Z,3.57
2018-06-23T14:41:03.732Z,3.47
2018-06-23T14:43:30.923Z,3.43
2018-06-23T14:45:58.051Z,3.97
2018-06-23T14:48:25.283Z,3.90
2018-06-23T14:50:52.443Z,3.83
2018-06-23T14:53:19.753Z,4.50
2018-06-23T14:55:46.943Z,4.07
2018-06-23T14:58:14.183Z,4.47
2018-06-23T15:00:41.286Z,3.97
2018-06-23T15:03:08.394Z,4.47
2018-06-23T15:05:35.527Z,4.50
2018-06-23T15:08:14.534Z,4.43
2018-06-23T15:10:53.311Z,3.83
2018-06-23T15:13:20.499Z,4.10
2018-06-23T15:15:47.639Z,4.07
2018-06-23T15:18:14.799Z,3.20
2018-06-23T15:20:42.300Z,3.97
2018-06-23T15:23:09.460Z,3.30
2018-06-23T15:25:36.599Z,3.03
2018-06-23T15:28:03.778Z,3.30
2018-06-23T15:30:30.894Z,3.57
2018-06-23T15:32:58.061Z,2.87
2018-06-23T15:35:25.275Z,3.00
2018-06-23T15:37:52.826Z,2.97
2018-06-23T15:40:19.955Z,3.00
2018-06-23T15:42:47.117Z,2.80
2018-06-23T15:45:14.274Z,2.53
2018-06-23T15:47:41.592Z,2.53
2018-06-23T15:50:08.751Z,2.33
2018-06-23T15:52:35.861Z,2.50
2018-06-23T15:55:02.999Z,2.77
2018-06-23T15:57:30.161Z,2.83
2018-06-23T15:59:57.350Z,2.27
2018-06-23T16:02:24.652Z,2.00
2018-06-23T16:04:51.722Z,3.17
2018-06-23T16:07:19.112Z,2.73
2018-06-23T16:09:46.243Z,2.73
2018-06-23T16:12:13.342Z,2.23
2018-06-23T16:14:40.456Z,2.57
2018-06-23T16:17:07.568Z,2.40
2018-06-23T16:19:34.697Z,3.17
2018-06-23T16:22:01.898Z,2.37
2018-06-23T16:24:29.039Z,2.23
2018-06-23T16:26:56.223Z,2.47
2018-06-23T16:29:23.395Z,1.93
2018-06-23T16:31:50.530Z,1.80
2018-06-23T16:34:17.642Z,1.90
2018-06-23T16:36:44.791Z,2.23
2018-06-23T16:39:11.932Z,2.63
2018-06-23T16:41:39.188Z,2.50
2018-06-23T16:44:06.656Z,2.20
2018-06-23T16:46:34.147Z,2.00
2018-06-23T16:49:01.264Z,2.73
2018-06-23T16:51:28.467Z,2.90
2018-06-23T16:53:55.748Z,2.30
2018-06-23T16:56:22.927Z,2.07
2018-06-23T16:58:50.063Z,2.50
2018-06-23T17:01:17.163Z,2.13
2018-06-23T17:03:44.463Z,1.90
2018-06-23T17:06:11.515Z,2.00
2018-06-23T17:08:38.657Z,1.90
2018-06-23T17:11:05.827Z,2.30
2018-06-23T17:13:32.977Z,2.33
2018-06-23T17:16:00.166Z,2.10
2018-06-23T17:18:27.497Z,1.90
2018-06-23T17:20:54.714Z,1.97
2018-06-23T17:23:21.860Z,2.00
2018-06-23T17:25:48.971Z,2.37
2018-06-23T17:28:16.106Z,2.37
2018-06-23T17:30:43.233Z,1.90
2018-06-23T17:33:10.395Z,1.63
2018-06-23T17:35:37.529Z,1.97
2018-06-23T17:38:04.672Z,1.60
2018-06-23T17:40:31.794Z,2.20
2018-06-23T17:42:58.966Z,1.97
2018-06-23T17:45:26.160Z,2.57
2018-06-23T17:47:53.385Z,2.10
2018-06-23T17:50:20.535Z,2.17
2018-06-23T17:52:47.724Z,2.73
2018-06-23T17:55:15.073Z,2.17
2018-06-23T17:57:42.416Z,2.27
2018-06-23T18:00:09.335Z,2.03
2018-06-23T18:02:36.903Z,2.37
2018-06-23T18:05:04.103Z,2.20
2018-06-23T18:07:31.751Z,2.30
2018-06-23T18:09:58.945Z,2.33
2018-06-23T18:12:26.179Z,2.63
2018-06-23T18:14:53.395Z,2.60
2018-06-23T18:17:20.536Z,2.63
2018-06-23T18:19:47.694Z,2.57
2018-06-23T18:22:14.796Z,1.80
2018-06-23T18:24:41.912Z,2.63
2018-06-23T18:27:09.031Z,2.70
2018-06-23T18:29:36.155Z,2.57
2018-06-23T18:32:03.482Z,2.30
2018-06-23T18:34:30.631Z,2.60
2018-06-23T18:36:57.867Z,2.50
2018-06-23T18:39:25.076Z,2.13
2018-06-23T18:41:52.188Z,2.40
2018-06-23T18:44:19.316Z,2.90
2018-06-23T18:46:46.431Z,2.80
2018-06-23T18:49:13.582Z,2.33
2018-06-23T18:51:40.717Z,2.73
2018-06-23T18:54:07.873Z,2.30
2018-06-23T18:56:34.980Z,2.93
2018-06-23T18:59:02.088Z,2.70
2018-06-23T19:01:29.270Z,3.00
2018-06-23T19:03:56.433Z,3.03
2018-06-23T19:06:23.675Z,2.53
2018-06-23T19:08:50.884Z,2.80
2018-06-23T19:11:17.996Z,2.60
2018-06-23T19:13:45.112Z,2.80
2018-06-23T19:16:12.238Z,3.20
2018-06-23T19:18:39.346Z,2.90
2018-06-23T19:21:06.837Z,2.67
2018-06-23T19:23:33.942Z,2.93
2018-06-23T19:26:01.125Z,3.50
2018-06-23T19:28:28.440Z,3.53
2018-06-23T19:30:55.687Z,3.30
2018-06-23T19:33:22.832Z,3.23
2018-06-23T19:35:49.979Z,2.93
2018-06-23T19:38:17.097Z,3.30
2018-06-23T19:40:44.222Z,3.70
2018-06-23T19:43:11.354Z,3.30
2018-06-23T19:45:38.491Z,3.80
2018-06-23T19:48:05.611Z,4.27
2018-06-23T19:50:32.771Z,2.87
2018-06-23T19:52:59.899Z,3.00
2018-06-23T19:55:27.125Z,2.67
2018-06-23T19:57:54.451Z,3.53
2018-06-23T20:00:21.597Z,3.37
2018-06-23T20:02:48.747Z,3.10
2018-06-23T20:05:15.846Z,2.87
2018-06-23T20:07:42.956Z,3.77
2018-06-23T20:10:10.055Z,3.73
2018-06-23T20:12:37.180Z,3.43
2018-06-23T20:15:04.528Z,3.73
2018-06-23T20:17:31.685Z,3.50
2018-06-23T20:19:58.871Z,2.83
2018-06-23T20:22:26.063Z,2.70
2018-06-23T20:24:53.203Z,2.60
2018-06-23T20:27:20.311Z,2.77
2018-06-23T20:29:47.441Z,2.93
2018-06-23T20:32:14.716Z,2.53
2018-06-23T20:34:41.932Z,2.97
2018-06-23T20:37:09.052Z,2.90
2018-06-23T20:39:36.186Z,3.00
2018-06-23T20:42:03.307Z,2.97
2018-06-23T20:44:30.479Z,3.30
2018-06-23T20:46:57.655Z,2.60
2018-06-23T20:49:24.832Z,2.57
2018-06-23T20:51:51.972Z,3.40
2018-06-23T20:54:19.082Z,3.43
2018-06-23T20:56:46.240Z,3.20
2018-06-23T20:59:13.354Z,3.17
2018-06-23T21:01:40.953Z,3.03
2018-06-23T21:04:10.120Z,3.20
2018-06-23T21:06:37.441Z,3.30
2018-06-23T21:09:06.722Z,3.20
2018-06-23T21:11:33.892Z,3.30
2018-06-23T21:14:01.042Z,3.27
2018-06-23T21:16:28.218Z,3.50
2018-06-23T21:18:55.411Z,2.80
2018-06-23T21:21:22.574Z,3.27
2018-06-23T21:23:49.672Z,3.03
2018-06-23T21:26:16.818Z,2.90
2018-06-23T21:28:43.976Z,3.27
2018-06-23T21:31:11.141Z,3.50
2018-06-23T21:33:38.690Z,3.20
2018-06-23T21:36:06.247Z,3.33
2018-06-23T21:38:33.399Z,3.40
2018-06-23T21:41:00.635Z,3.37
2018-06-23T21:43:27.825Z,3.10
2018-06-23T21:45:55.313Z,3.53
2018-06-23T21:48:22.651Z,3.53
2018-06-23T21:50:49.997Z,3.90
2018-06-23T21:53:17.247Z,3.37
2018-06-23T21:55:44.530Z,3.60
2018-06-23T21:58:11.636Z,5.93
2018-06-23T22:00:40.248Z,4.93
2018-06-23T22:03:09.024Z,3.73
2018-06-23T22:05:36.163Z,4.30
2018-06-23T22:08:03.883Z,4.27
2018-06-23T22:10:31.182Z,3.77
2018-06-23T22:12:58.377Z,4.23
2018-06-23T22:15:25.687Z,3.70
2018-06-23T22:17:52.852Z,3.13
2018-06-23T22:20:20.212Z,3.33
2018-06-23T22:22:47.885Z,3.60
2018-06-23T22:25:15.300Z,4.10
2018-06-23T22:27:42.984Z,3.43
2018-06-23T22:30:10.153Z,3.23
2018-06-23T22:32:37.314Z,3.43
2018-06-23T22:35:04.448Z,3.87
2018-06-23T22:37:31.627Z,3.27
2018-06-23T22:39:58.763Z,3.30
2018-06-23T22:42:26.073Z,2.90
2018-06-23T22:44:53.212Z,3.57
2018-06-23T22:47:20.379Z,2.70
2018-06-23T22:49:47.518Z,3.27
2018-06-23T22:52:14.648Z,3.13
2018-06-23T22:54:41.784Z,3.33
2018-06-23T22:57:08.919Z,2.87
2018-06-23T22:59:36.055Z,3.10
2018-06-23T23:02:03.222Z,3.13
2018-06-23T23:04:30.410Z,3.50
2018-06-23T23:06:57.578Z,3.20
2018-06-23T23:09:24.979Z,3.00
2018-06-23T23:11:52.151Z,3.27
2018-06-23T23:14:19.324Z,3.53
2018-06-23T23:16:53.597Z,3.07
2018-06-23T23:19:21.015Z,3.03
2018-06-23T23:21:48.300Z,3.20
2018-06-23T23:24:15.575Z,3.30
2018-06-23T23:26:42.939Z,3.27
2018-06-23T23:29:10.412Z,3.30
2018-06-23T23:31:37.547Z,3.40
2018-06-23T23:34:04.968Z,3.40
2018-06-23T23:36:32.130Z,3.47
2018-06-23T23:38:59.274Z,3.37
2018-06-23T23:41:26.451Z,3.07
2018-06-23T23:43:53.580Z,3.50
2018-06-23T23:46:20.702Z,3.40
2018-06-23T23:48:47.866Z,3.10
2018-06-23T23:51:15.028Z,3.73
2018-06-23T23:53:42.140Z,3.40
2018-06-23T23:56:09.251Z,2.93
2018-06-23T23:58:36.372Z,3.83
